Time;durP1;ratioP1;P1;durP2;ratioP2;P2;SDS_P1;SDS_P2;PMS_P1;PMS_P2;Temp;Humidity;BMP_temperature;BMP_pressure;BME280_temperature;BME280_humidity;BME280_pressure;Samples;Min_cycle;Max_cycle;Signal;HPM_P1;HPM_P2
2023/01/01 00:00:45;;;;;;;;;2.00;1.00;;;;;15.85;48.33;101079.13;5040022;28;45399;-87
2023/01/01 00:03:10;;;;;;;;;2.00;1.25;;;;;15.84;48.51;101068.69;5023814;28;45579;-87
2023/01/01 00:05:39;;;;;;;;;2.00;2.00;;;;;15.85;49.10;101076.50;5039891;28;45361;-87
2023/01/01 00:08:05;;;;;;;;;2.25;1.00;;;;;15.83;49.13;101070.47;5057837;28;47054;-88
2023/01/01 00:10:31;;;;;;;;;2.00;2.00;;;;;15.80;48.94;101081.09;5039861;28;45815;-88
2023/01/01 00:12:57;;;;;;;;;2.00;2.00;;;;;15.81;49.01;101068.84;5057507;28;45420;-88
2023/01/01 00:15:22;;;;;;;;;1.50;1.50;;;;;15.78;48.93;101080.34;5039974;28;45377;-87
2023/01/01 00:17:48;;;;;;;;;1.00;1.00;;;;;15.82;49.81;101084.53;5039746;28;46402;-86
2023/01/01 00:20:13;;;;;;;;;1.75;1.75;;;;;15.80;49.51;101082.88;5039795;28;45321;-87
2023/01/01 00:22:39;;;;;;;;;2.00;2.00;;;;;15.79;49.84;101068.09;5039421;28;45299;-87
2023/01/01 00:25:07;;;;;;;;;6.00;1.25;;;;;15.78;49.96;101064.59;5039685;28;45398;-87
2023/01/01 00:27:33;;;;;;;;;1.50;1.50;;;;;15.79;50.20;101082.03;5057017;28;45525;-87
2023/01/01 00:29:58;;;;;;;;;2.25;2.00;;;;;15.75;50.23;101062.13;5039067;28;45535;-87
2023/01/01 00:32:23;;;;;;;;;2.00;2.00;;;;;15.75;49.89;101067.38;5039102;28;55584;-87
2023/01/01 00:34:49;;;;;;;;;4.00;2.00;;;;;15.75;50.49;101075.25;5039077;28;50034;-87
2023/01/01 00:37:17;;;;;;;;;5.50;1.50;;;;;15.77;50.62;101057.66;5022199;28;47314;-87
2023/01/01 00:39:42;;;;;;;;;2.50;1.00;;;;;15.77;51.09;101070.78;5039599;28;45426;-87
2023/01/01 00:42:07;;;;;;;;;2.00;2.00;;;;;15.78;50.56;101071.63;5022374;28;45355;-87
2023/01/01 00:44:33;;;;;;;;;2.00;2.00;;;;;15.76;50.69;101066.44;5039011;28;53174;-85
2023/01/01 00:46:58;;;;;;;;;2.25;1.00;;;;;15.75;50.74;101075.25;5038712;28;55097;-87
2023/01/01 00:49:23;;;;;;;;;2.00;2.00;;;;;15.74;50.80;101077.94;5039026;28;50420;-86
2023/01/01 00:51:49;;;;;;;;;1.75;1.75;;;;;15.72;51.16;101075.34;5038778;28;55977;-86
2023/01/01 00:54:14;;;;;;;;;2.00;2.00;;;;;15.72;51.11;101091.09;5038904;28;54755;-86
2023/01/01 00:56:39;;;;;;;;;1.00;1.00;;;;;15.71;51.27;101073.63;5038273;28;56739;-87
2023/01/01 00:59:05;;;;;;;;;2.00;2.00;;;;;15.70;51.34;101066.69;5056798;28;45262;-86
2023/01/01 01:01:32;;;;;;;;;2.00;2.00;;;;;15.71;50.94;101070.16;5039177;28;45337;-87
2023/01/01 01:03:57;;;;;;;;;4.50;2.00;;;;;15.67;51.75;101059.81;5039222;28;45373;-86
2023/01/01 01:06:23;;;;;;;;;2.50;2.50;;;;;15.67;52.17;101061.56;5038509;28;56168;-86
2023/01/01 01:08:48;;;;;;;;;2.00;2.00;;;;;15.66;51.99;101063.34;5056830;28;45476;-86
2023/01/01 01:11:19;;;;;;;;;2.50;1.50;;;;;15.69;52.07;101085.97;5038767;28;45353;-86
2023/01/01 01:13:47;;;;;;;;;3.00;2.00;;;;;15.66;52.30;101071.22;5056997;28;45514;-86
2023/01/01 01:16:18;;;;;;;;;1.50;1.50;;;;;15.67;52.84;101079.94;5056863;28;47255;-86
2023/01/01 01:18:44;;;;;;;;;4.00;2.00;;;;;15.67;52.22;101087.81;5038746;28;45632;-86
2023/01/01 01:21:10;;;;;;;;;3.25;1.25;;;;;15.66;52.80;101104.50;5057003;28;45345;-86
2023/01/01 01:23:36;;;;;;;;;1.75;1.75;;;;;15.67;52.82;101083.44;5038772;28;45294;-86
2023/01/01 01:26:12;;;;;;;;;1.00;1.00;;;;;15.65;52.71;101094.91;5038345;28;45425;-87
2023/01/01 01:28:38;;;;;;;;;4.50;2.75;;;;;15.62;52.96;101085.41;5038332;28;45518;-86
2023/01/01 01:31:03;;;;;;;;;2.00;2.00;;;;;15.61;53.57;101088.09;5038522;28;45423;-87
2023/01/01 01:33:29;;;;;;;;;1.75;1.75;;;;;15.61;53.61;101104.69;5056621;28;45421;-86
2023/01/01 01:35:54;;;;;;;;;4.50;2.00;;;;;15.60;53.91;101103.00;5038586;28;46111;-86
2023/01/01 01:38:19;;;;;;;;;3.75;2.00;;;;;15.60;54.05;101103.00;5056191;28;45384;-87
2023/01/01 01:40:45;;;;;;;;;1.00;0.50;;;;;15.60;54.02;101107.38;5020974;28;56187;-87
2023/01/01 01:43:25;;;;;;;;;3.50;1.00;;;;;15.58;54.40;101110.06;5021247;28;45445;-86
2023/01/01 01:46:05;;;;;;;;;2.75;1.00;;;;;15.57;54.67;101116.22;5018261;28;46104;-87
2023/01/01 01:48:38;;;;;;;;;4.50;2.00;;;;;15.56;54.88;101114.50;5018199;28;45719;-86
2023/01/01 01:51:04;;;;;;;;;4.75;1.75;;;;;15.57;54.94;101115.38;5017825;28;45339;-87
2023/01/01 01:53:32;;;;;;;;;3.00;2.00;;;;;15.58;55.06;101125.81;5018417;28;45751;-86
2023/01/01 01:56:11;;;;;;;;;2.75;2.75;;;;;15.60;54.98;101123.09;5017849;28;48196;-87
2023/01/01 01:58:36;;;;;;;;;4.25;3.00;;;;;15.58;55.11;101128.44;5018012;28;45411;-87
2023/01/01 02:01:02;;;;;;;;;4.00;2.50;;;;;15.57;55.32;101139.84;5017896;28;54794;-86
2023/01/01 02:03:39;;;;;;;;;3.00;2.00;;;;;15.58;55.99;101133.69;5001182;28;53447;-87
2023/01/01 02:06:05;;;;;;;;;1.00;1.00;;;;;15.58;55.60;101130.19;5018471;28;47366;-86
2023/01/01 02:08:31;;;;;;;;;2.75;1.00;;;;;15.55;55.68;101139.06;5035781;28;45388;-86
2023/01/01 02:10:57;;;;;;;;;4.00;2.00;;;;;15.54;55.61;101137.34;5017923;28;45430;-86
2023/01/01 02:13:22;;;;;;;;;4.00;1.50;;;;;15.52;56.15;101130.47;5000786;28;65024;-86
2023/01/01 02:15:53;;;;;;;;;2.00;2.00;;;;;15.54;56.28;101147.84;5017552;28;57961;-86
2023/01/01 02:18:24;;;;;;;;;1.00;1.00;;;;;15.53;56.33;101155.81;5036038;28;45460;-87
2023/01/01 02:20:54;;;;;;;;;2.50;2.00;;;;;15.51;57.10;101155.84;5036033;28;45478;-86
2023/01/01 02:23:35;;;;;;;;;3.00;0.00;;;;;15.51;56.53;101152.34;5017862;28;45692;-87
2023/01/01 02:26:20;;;;;;;;;2.00;2.00;;;;;15.51;56.81;101153.25;5017674;28;46566;-87
2023/01/01 02:29:01;;;;;;;;;3.00;2.00;;;;;15.50;57.09;101154.16;5017576;28;45389;-86
2023/01/01 02:31:29;;;;;;;;;3.50;1.75;;;;;15.47;57.17;101142.03;5037637;28;45302;-86
2023/01/01 02:33:59;;;;;;;;;3.50;2.00;;;;;15.46;57.04;101140.31;5037796;28;45329;-86
2023/01/01 02:36:25;;;;;;;;;3.00;3.00;;;;;15.44;57.40;101151.78;5037627;28;47527;-87
2023/01/01 02:38:54;;;;;;;;;1.50;1.00;;;;;15.41;57.37;101160.63;5037443;28;45383;-86
2023/01/01 02:41:26;;;;;;;;;5.50;2.00;;;;;15.41;57.13;101165.03;5037770;28;46514;-86
2023/01/01 02:43:52;;;;;;;;;3.00;2.00;;;;;15.41;57.84;101165.03;5037681;28;45346;-86
2023/01/01 02:46:17;;;;;;;;;2.00;2.00;;;;;15.42;57.58;101156.25;5036765;28;65557;-87
2023/01/01 02:48:45;;;;;;;;;2.00;1.00;;;;;15.40;57.81;101168.59;5037542;28;45375;-86
2023/01/01 02:51:16;;;;;;;;;3.25;2.00;;;;;15.40;58.18;101184.31;5055848;28;45443;-86
2023/01/01 02:54:17;;;;;;;;;6.00;2.75;;;;;15.39;58.28;101187.84;5037317;28;45797;-86
2023/01/01 02:57:07;;;;;;;;;1.50;1.50;;;;;15.38;58.30;101180.88;5053061;28;46806;-86
2023/01/01 03:03:10;;;;;;;;;9.50;3.50;;;;;15.31;58.19;101169.81;5043655;28;45423;-86
2023/01/01 03:08:41;;;;;;;;;3.00;3.00;;;;;15.25;58.45;101173.53;5043086;28;45319;-86
2023/01/01 03:11:11;;;;;;;;;2.75;2.00;;;;;15.24;59.03;101173.59;5058838;28;46037;-86
2023/01/01 03:13:51;;;;;;;;;2.00;1.75;;;;;15.23;59.21;101179.75;5041109;28;45379;-86
2023/01/01 03:16:17;;;;;;;;;3.00;2.00;;;;;15.22;59.38;101172.81;5040865;28;45576;-86
2023/01/01 03:19:11;;;;;;;;;2.25;1.00;;;;;15.20;59.19;101178.13;5040663;28;46482;-86
2023/01/01 03:21:50;;;;;;;;;4.00;3.00;;;;;15.21;58.89;101174.59;5040203;28;46276;-86
2023/01/01 03:24:26;;;;;;;;;4.50;2.00;;;;;15.20;59.67;101185.16;5040662;28;45493;-86
2023/01/01 03:26:56;;;;;;;;;3.75;2.00;;;;;15.18;59.76;101185.19;5040773;28;45275;-86
2023/01/01 03:29:23;;;;;;;;;3.00;3.00;;;;;15.14;60.02;101194.13;5040070;28;47453;-86
2023/01/01 03:31:51;;;;;;;;;2.00;2.00;;;;;15.10;59.67;101188.13;5058494;28;45736;-87
2023/01/01 03:34:21;;;;;;;;;3.00;3.00;;;;;15.08;60.19;101189.09;5058437;28;45392;-86
2023/01/01 03:36:52;;;;;;;;;4.75;2.00;;;;;15.06;59.90;101197.06;5040190;28;45488;-86
2023/01/01 03:39:28;;;;;;;;;1.00;1.00;;;;;15.09;60.30;101201.31;5040487;28;46714;-86
2023/01/01 03:42:26;;;;;;;;;3.00;2.25;;;;;15.09;60.30;101207.41;5016778;28;45998;-86
2023/01/01 03:44:56;;;;;;;;;3.00;3.00;;;;;15.07;60.44;101213.63;5020434;28;45394;-86
2023/01/01 03:47:22;;;;;;;;;4.00;3.00;;;;;15.05;60.54;101205.81;5020640;28;45382;-87
2023/01/01 03:49:47;;;;;;;;;2.00;2.00;;;;;15.01;60.57;101199.00;5037310;28;59945;-86
2023/01/01 03:52:37;;;;;;;;;3.00;2.00;;;;;15.02;60.80;101215.56;5019844;28;45371;-86
2023/01/01 03:55:17;;;;;;;;;3.00;2.50;;;;;15.02;60.55;101221.66;5038241;28;45411;-86
2023/01/01 03:57:51;;;;;;;;;2.00;2.00;;;;;15.00;60.84;101213.00;5020284;28;45536;-85
2023/01/01 04:00:19;;;;;;;;;3.00;1.25;;;;;14.99;61.16;101221.81;5020041;28;45564;-86
2023/01/01 04:02:58;;;;;;;;;2.25;1.75;;;;;14.99;60.76;101224.44;5020066;28;45199;-86
2023/01/01 04:05:24;;;;;;;;;4.00;2.25;;;;;14.99;61.08;101236.66;5019882;28;45347;-86
2023/01/01 04:07:51;;;;;;;;;2.50;2.50;;;;;14.97;61.22;101243.72;5019995;28;45371;-86
2023/01/01 04:10:17;;;;;;;;;7.75;2.00;;;;;14.95;61.12;101245.56;5019708;28;46592;-86
2023/01/01 04:12:53;;;;;;;;;3.50;2.75;;;;;14.95;61.54;101235.06;5018999;28;45326;-86
2023/01/01 04:15:23;;;;;;;;;2.00;2.00;;;;;14.94;61.53;101234.22;5019962;28;45401;-86
2023/01/01 04:17:49;;;;;;;;;3.00;1.50;;;;;14.93;61.68;101229.03;5019786;28;45632;-85
2023/01/01 04:20:14;;;;;;;;;2.00;1.50;;;;;14.92;61.56;101228.19;5019443;28;46275;-86
2023/01/01 04:22:40;;;;;;;;;5.25;3.00;;;;;14.93;62.10;101232.50;5019687;28;45327;-86
2023/01/01 04:25:06;;;;;;;;;4.00;2.00;;;;;14.93;62.18;101247.38;5019794;28;45326;-86
2023/01/01 04:27:32;;;;;;;;;3.75;2.00;;;;;14.92;62.18;101245.69;5037647;28;45302;-86
2023/01/01 04:29:57;;;;;;;;;1.50;1.00;;;;;14.88;62.17;101247.59;5026775;28;46414;-87
2023/01/01 04:32:22;;;;;;;;;3.25;3.00;;;;;14.89;62.29;101247.53;5057621;28;45911;-87
2023/01/01 04:34:48;;;;;;;;;2.00;2.00;;;;;14.88;62.12;101250.22;5039200;28;45226;-86
2023/01/01 04:37:13;;;;;;;;;7.00;3.00;;;;;14.86;62.17;101234.53;5056944;28;60705;-87
2023/01/01 04:39:39;;;;;;;;;4.00;1.00;;;;;14.85;62.39;101240.69;5038826;28;60055;-86
2023/01/01 04:42:04;;;;;;;;;3.00;2.50;;;;;14.83;62.34;101239.03;5057189;28;45233;-86
2023/01/01 04:44:30;;;;;;;;;6.75;1.50;;;;;14.82;62.66;101242.56;5038633;28;64016;-86
2023/01/01 04:46:55;;;;;;;;;2.50;1.00;;;;;14.84;62.48;101248.59;5039352;28;45234;-86
2023/01/01 04:49:21;;;;;;;;;0.00;0.00;;;;;14.84;62.74;101252.09;5038332;28;60485;-86
2023/01/01 04:51:46;;;;;;;;;3.00;2.00;;;;;14.81;62.58;101252.19;5057229;28;45456;-86
2023/01/01 04:54:12;;;;;;;;;3.00;3.00;;;;;14.83;63.15;101252.16;5038930;28;50706;-86
2023/01/01 04:56:37;;;;;;;;;5.75;2.00;;;;;14.81;62.63;101246.09;5022416;28;47703;-86
2023/01/01 04:59:02;;;;;;;;;4.75;3.00;;;;;14.79;63.19;101256.66;5022114;28;51881;-86
2023/01/01 05:01:29;;;;;;;;;3.00;2.00;;;;;14.76;63.34;101256.75;5056609;28;61069;-86
2023/01/01 05:03:55;;;;;;;;;3.50;1.75;;;;;14.74;63.19;101263.81;5038974;28;45382;-86
2023/01/01 05:06:21;;;;;;;;;2.00;1.00;;;;;14.73;63.43;101253.38;5039155;28;45455;-85
2023/01/01 05:08:48;;;;;;;;;1.00;1.00;;;;;14.69;63.50;101253.53;5056832;28;47562;-85
2023/01/01 05:11:25;;;;;;;;;3.50;1.50;;;;;14.69;63.57;101269.25;5038964;28;45473;-85
2023/01/01 05:13:52;;;;;;;;;2.25;2.00;;;;;14.70;63.36;101260.47;5057133;28;45276;-86
2023/01/01 05:16:21;;;;;;;;;2.25;2.25;;;;;14.71;63.54;101280.53;5022212;28;45407;-86
2023/01/01 05:18:47;;;;;;;;;1.00;1.00;;;;;14.71;63.93;101282.31;5056303;28;46322;-85
2023/01/01 05:21:15;;;;;;;;;2.00;2.00;;;;;14.71;64.30;101298.88;5056855;28;45333;-86
2023/01/01 05:23:41;;;;;;;;;1.75;1.75;;;;;14.69;63.97;101276.22;5056673;28;45417;-86
2023/01/01 05:26:11;;;;;;;;;2.50;2.00;;;;;14.67;64.62;101294.66;5056990;28;45310;-85
2023/01/01 05:28:37;;;;;;;;;3.25;2.00;;;;;14.66;64.47;101290.31;5056192;28;46420;-86
2023/01/01 05:31:07;;;;;;;;;3.50;2.00;;;;;14.65;64.31;101298.22;5038385;28;45244;-86
2023/01/01 05:33:33;;;;;;;;;3.50;2.00;;;;;14.63;64.43;101297.44;5055130;28;45359;-86
2023/01/01 05:35:59;;;;;;;;;2.75;1.50;;;;;14.64;64.59;101297.38;5056560;28;45463;-87
2023/01/01 05:38:24;;;;;;;;;3.25;3.00;;;;;14.64;64.79;101301.78;5056245;28;45370;-86
2023/01/01 05:40:49;;;;;;;;;3.25;2.00;;;;;14.65;64.62;101299.09;5055942;28;54757;-85
2023/01/01 05:43:16;;;;;;;;;5.00;2.00;;;;;14.68;64.72;101313.84;5020153;28;55156;-85
2023/01/01 05:45:41;;;;;;;;;1.00;1.00;;;;;14.65;64.46;101312.22;5037204;28;45581;-86
2023/01/01 05:48:07;;;;;;;;;3.00;0.00;;;;;14.65;64.84;101312.22;5018382;28;45551;-86
2023/01/01 05:50:32;;;;;;;;;2.00;2.00;;;;;14.67;64.46;101299.91;5017695;28;67121;-86
2023/01/01 05:52:57;;;;;;;;;1.00;1.00;;;;;14.65;64.63;101312.22;5017625;28;64060;-86
2023/01/01 05:55:23;;;;;;;;;3.00;1.00;;;;;14.64;64.77;101320.13;5018638;28;45275;-86
2023/01/01 05:57:48;;;;;;;;;1.25;1.00;;;;;14.61;64.46;101313.22;5035578;28;59344;-86
2023/01/01 06:00:14;;;;;;;;;4.00;1.50;;;;;14.59;64.62;101312.41;5035453;28;62339;-86
2023/01/01 06:02:39;;;;;;;;;3.50;1.25;;;;;14.57;65.24;101305.50;5035756;28;45357;-86
2023/01/01 06:05:05;;;;;;;;;1.00;1.00;;;;;14.55;65.42;101304.69;5001492;28;52420;-86
2023/01/01 06:07:30;;;;;;;;;1.75;1.75;;;;;14.53;65.03;101300.34;5018120;28;45639;-87
2023/01/01 06:09:55;;;;;;;;;4.25;1.00;;;;;14.54;65.40;101311.69;5035621;28;55053;-86
2023/01/01 06:12:20;;;;;;;;;2.75;0.00;;;;;14.53;65.02;101292.50;5035911;28;45381;-87
2023/01/01 06:14:46;;;;;;;;;2.75;2.00;;;;;14.52;64.86;101293.44;5017912;28;52350;-87
2023/01/01 06:17:11;;;;;;;;;2.00;2.00;;;;;14.51;65.43;101289.09;5035475;28;46591;-86
2023/01/01 06:19:36;;;;;;;;;2.75;2.00;;;;;14.53;65.28;101295.13;5000567;28;61859;-86
2023/01/01 06:22:02;;;;;;;;;4.25;2.25;;;;;14.53;65.36;101282.03;5017717;28;54834;-86
2023/01/01 06:24:27;;;;;;;;;6.00;2.25;;;;;14.54;65.36;101280.25;5035247;28;58643;-86
2023/01/01 06:26:52;;;;;;;;;8.00;1.50;;;;;14.57;65.19;101289.78;5017087;28;64413;-86
2023/01/01 06:29:18;;;;;;;;;0.00;0.00;;;;;14.57;65.22;101288.03;5019463;28;45466;-86
2023/01/01 06:31:43;;;;;;;;;2.00;2.00;;;;;14.58;65.15;101281.91;5055557;28;45527;-86
2023/01/01 06:34:08;;;;;;;;;3.00;2.00;;;;;14.57;65.88;101314.22;5036905;28;65437;-86
2023/01/01 06:36:34;;;;;;;;;3.25;1.00;;;;;14.56;65.65;101322.13;5039027;28;65537;-86
2023/01/01 06:38:59;;;;;;;;;2.50;2.00;;;;;14.54;65.60;101322.16;5040609;28;62831;-86
2023/01/01 06:41:26;;;;;;;;;5.50;1.75;;;;;14.55;65.54;101309.94;5041356;28;45377;-86
2023/01/01 06:43:54;;;;;;;;;7.25;3.00;;;;;14.57;65.40;101322.09;5059311;28;45251;-86
2023/01/01 06:46:30;;;;;;;;;2.75;1.25;;;;;14.57;65.73;101321.22;5024223;28;48595;-87
2023/01/01 06:48:57;;;;;;;;;2.00;2.00;;;;;14.55;65.34;101325.66;5040899;28;45699;-86
2023/01/01 06:51:26;;;;;;;;;3.00;2.75;;;;;14.56;65.69;101328.22;5059160;28;45322;-86
2023/01/01 06:53:52;;;;;;;;;4.00;1.00;;;;;14.56;65.61;101349.19;5041238;28;45493;-86
2023/01/01 06:56:18;;;;;;;;;2.75;0.50;;;;;14.53;65.80;101344.88;5040961;28;45457;-86
2023/01/01 06:58:44;;;;;;;;;1.25;1.00;;;;;14.53;65.86;101349.28;5040769;28;45734;-85
2023/01/01 07:01:16;;;;;;;;;2.00;1.00;;;;;14.56;65.68;101351.81;5041051;28;45286;-86
2023/01/01 07:03:42;;;;;;;;;4.50;0.00;;;;;14.58;65.81;101351.75;5058877;28;45667;-86
2023/01/01 07:06:08;;;;;;;;;1.25;1.00;;;;;14.55;66.04;101350.09;5040804;28;45666;-86
2023/01/01 07:08:34;;;;;;;;;1.50;1.50;;;;;14.56;66.18;101356.16;5040965;28;45258;-86
2023/01/01 07:11:00;;;;;;;;;3.75;1.00;;;;;14.55;66.50;101367.56;5059141;28;45360;-86
2023/01/01 07:13:26;;;;;;;;;4.50;2.00;;;;;14.55;66.43;101362.34;5058496;28;45289;-86
2023/01/01 07:15:52;;;;;;;;;2.25;1.00;;;;;14.53;66.23;101363.22;5058887;28;46680;-86
2023/01/01 07:18:22;;;;;;;;;2.00;1.00;;;;;14.55;66.38;101372.81;5058728;28;45370;-86
2023/01/01 07:20:56;;;;;;;;;4.25;2.25;;;;;14.50;66.57;101378.19;5040748;28;45270;-86
2023/01/01 07:23:22;;;;;;;;;4.00;1.50;;;;;14.47;67.07;101386.19;5040771;28;45518;-86
2023/01/01 07:25:52;;;;;;;;;6.00;2.00;;;;;14.43;67.17;101390.66;5058636;28;45340;-85
2023/01/01 07:28:17;;;;;;;;;2.50;1.00;;;;;14.40;67.29;101385.53;5055685;28;45537;-86
2023/01/01 07:30:43;;;;;;;;;2.25;1.75;;;;;14.42;67.21;101388.94;5058337;28;45467;-86
2023/01/01 07:33:11;;;;;;;;;1.75;1.75;;;;;14.47;67.28;101391.44;5057869;28;60708;-86
2023/01/01 07:35:36;;;;;;;;;2.00;2.00;;;;;14.48;66.69;101386.09;5059484;28;46536;-86
2023/01/01 07:38:02;;;;;;;;;2.75;2.00;;;;;14.47;67.28;101392.28;5047585;28;45386;-86
2023/01/01 07:40:27;;;;;;;;;3.00;2.00;;;;;14.45;67.47;101388.84;5058998;28;45246;-86
2023/01/01 07:42:52;;;;;;;;;2.75;1.00;;;;;14.45;66.96;101399.31;5042328;28;64936;-86
2023/01/01 07:45:18;;;;;;;;;2.75;2.00;;;;;14.45;67.71;101404.56;5019526;28;65403;-86
2023/01/01 07:47:49;;;;;;;;;2.75;1.25;;;;;14.45;67.32;101411.53;5018423;28;59982;-86
2023/01/01 07:50:16;;;;;;;;;7.25;2.25;;;;;14.42;67.39;101423.00;5020447;28;45439;-86
2023/01/01 07:52:41;;;;;;;;;4.75;2.00;;;;;14.40;67.79;101432.66;5038006;28;45294;-85
2023/01/01 07:55:11;;;;;;;;;3.25;2.00;;;;;14.38;67.60;101424.00;5020037;28;49943;-86
2023/01/01 07:57:36;;;;;;;;;2.50;1.00;;;;;14.36;68.18;101423.22;5019796;28;45319;-85
2023/01/01 08:00:01;;;;;;;;;2.00;1.00;;;;;14.36;67.68;101435.44;5019799;28;53291;-87
2023/01/01 08:02:27;;;;;;;;;4.50;1.00;;;;;14.34;67.81;101435.50;5038212;28;45414;-85
2023/01/01 08:04:52;;;;;;;;;4.50;2.00;;;;;14.31;68.08;101438.22;5019785;28;49851;-85
2023/01/01 08:07:17;;;;;;;;;1.75;1.00;;;;;14.31;68.34;101440.84;5002526;28;67155;-86
2023/01/01 08:09:43;;;;;;;;;2.00;2.00;;;;;14.29;68.00;101445.28;5003065;28;54870;-86
2023/01/01 08:12:08;;;;;;;;;2.50;1.00;;;;;14.29;68.56;101447.88;5037107;28;51758;-85
2023/01/01 08:14:33;;;;;;;;;2.25;2.25;;;;;14.28;68.58;101447.03;5019262;28;68311;-86
2023/01/01 08:16:59;;;;;;;;;3.00;1.50;;;;;14.28;68.41;101457.53;5002389;28;71496;-86
2023/01/01 08:19:24;;;;;;;;;4.50;2.00;;;;;14.30;68.41;101462.69;5003291;28;45375;-86
2023/01/01 08:21:50;;;;;;;;;5.00;1.00;;;;;14.26;68.55;101459.34;5037708;28;45438;-86
2023/01/01 08:24:15;;;;;;;;;1.00;1.00;;;;;14.25;68.84;101454.16;5019610;28;46261;-86
2023/01/01 08:26:40;;;;;;;;;3.25;2.50;;;;;14.24;69.01;101448.03;5019563;28;45440;-86
2023/01/01 08:29:06;;;;;;;;;1.00;1.00;;;;;14.23;69.12;101455.97;5019244;28;54164;-86
2023/01/01 08:31:32;;;;;;;;;1.00;0.75;;;;;14.22;68.91;101456.84;5038833;28;60726;-86
2023/01/01 08:33:57;;;;;;;;;4.50;1.75;;;;;14.20;69.51;101458.66;5039413;28;45370;-86
2023/01/01 08:36:23;;;;;;;;;5.00;1.25;;;;;14.17;69.95;101448.28;5056504;28;69645;-86
2023/01/01 08:38:49;;;;;;;;;3.00;1.00;;;;;14.12;70.92;101454.53;5039523;28;45362;-86
2023/01/01 08:41:14;;;;;;;;;1.75;1.00;;;;;14.09;71.31;101456.38;5039474;28;45207;-86
2023/01/01 08:43:39;;;;;;;;;4.00;1.00;;;;;14.04;71.23;101438.22;5022617;28;48326;-87
2023/01/01 08:46:05;;;;;;;;;3.00;1.00;;;;;13.99;70.88;101432.28;5056684;28;66062;-86
2023/01/01 08:48:30;;;;;;;;;2.50;2.50;;;;;13.95;71.70;101420.19;5038821;28;55876;-86
2023/01/01 08:50:59;;;;;;;;;5.00;3.25;;;;;13.93;72.38;101438.56;5021860;28;66496;-86
2023/01/01 08:53:25;;;;;;;;;5.25;3.75;;;;;13.94;71.88;101436.78;5057034;28;45753;-86
2023/01/01 08:56:03;;;;;;;;;9.50;4.25;;;;;13.96;71.74;101434.13;5056758;28;45807;-86
2023/01/01 08:58:29;;;;;;;;;2.75;2.75;;;;;13.96;72.20;101427.13;5056744;28;45261;-86
2023/01/01 09:00:54;;;;;;;;;3.75;2.00;;;;;13.95;72.35;101433.28;5022401;28;45366;-87
2023/01/01 09:03:20;;;;;;;;;5.50;4.00;;;;;13.94;72.13;101427.16;5038908;28;45423;-86
2023/01/01 09:05:45;;;;;;;;;8.00;4.00;;;;;13.97;71.64;101420.13;5038986;28;45278;-86
2023/01/01 09:08:11;;;;;;;;;4.25;2.50;;;;;13.99;71.58;101424.44;5039001;28;45251;-86
2023/01/01 09:10:37;;;;;;;;;4.00;1.00;;;;;13.99;71.99;101421.81;5022107;28;45636;-87
2023/01/01 09:13:02;;;;;;;;;2.50;1.00;;;;;14.00;71.48;101413.03;5038814;28;46490;-87
2023/01/01 09:15:28;;;;;;;;;1.00;1.00;;;;;14.02;71.45;101413.88;5056746;28;45663;-86
2023/01/01 09:17:53;;;;;;;;;1.75;1.00;;;;;14.04;71.18;101398.97;5038907;28;45396;-86
2023/01/01 09:20:18;;;;;;;;;4.00;2.00;;;;;14.06;71.24;101411.97;5056252;28;57592;-87
2023/01/01 09:22:44;;;;;;;;;1.00;1.00;;;;;14.07;71.52;101414.56;5056424;28;52459;-86
2023/01/01 09:25:09;;;;;;;;;1.75;1.75;;;;;14.09;71.11;101406.66;5038735;28;56401;-86
2023/01/01 09:27:34;;;;;;;;;6.00;3.00;;;;;14.09;70.92;101410.13;5056905;28;45671;-86
2023/01/01 09:30:00;;;;;;;;;1.00;1.00;;;;;14.11;71.26;101415.31;5034567;28;54605;-86
2023/01/01 09:32:25;;;;;;;;;4.00;1.00;;;;;14.13;71.13;101414.38;5036341;28;46255;-87
2023/01/01 09:34:50;;;;;;;;;3.00;2.00;;;;;14.14;71.07;101425.69;5035155;28;45392;-86
2023/01/01 09:37:16;;;;;;;;;2.50;1.00;;;;;14.15;71.64;101435.25;5035212;28;51955;-86
2023/01/01 09:39:41;;;;;;;;;5.00;2.00;;;;;14.17;71.92;101437.81;5034980;28;45452;-86
2023/01/01 09:42:21;;;;;;;;;3.25;1.25;;;;;14.15;71.14;101440.47;5027856;28;46382;-86
2023/01/01 09:45:28;;;;;;;;;1.00;1.00;;;;;14.13;71.14;101443.16;5016346;28;45264;-86
2023/01/01 09:48:05;;;;;;;;;5.00;2.00;;;;;14.15;71.36;101443.09;5004743;28;45402;-86
2023/01/01 09:50:37;;;;;;;;;3.00;2.00;;;;;14.19;71.42;101447.34;5015188;28;45539;-86
2023/01/01 09:53:12;;;;;;;;;3.00;3.00;;;;;14.22;71.90;101464.72;5014596;28;46516;-86
2023/01/01 09:55:57;;;;;;;;;5.25;2.00;;;;;14.28;71.60;101469.72;5015078;28;45361;-86
2023/01/01 09:58:25;;;;;;;;;2.00;2.00;;;;;14.29;72.12;101469.69;5015006;28;45462;-86
2023/01/01 10:00:56;;;;;;;;;3.25;1.75;;;;;14.30;72.89;101473.16;5014867;28;45444;-86
2023/01/01 10:03:47;;;;;;;;;5.25;1.75;;;;;14.27;72.84;101481.13;5014638;28;45455;-86
2023/01/01 10:06:27;;;;;;;;;4.00;2.00;;;;;14.25;73.02;101481.19;5014797;28;45813;-86
2023/01/01 10:09:14;;;;;;;;;3.75;1.25;;;;;14.23;72.46;101488.22;5014747;28;45425;-86
2023/01/01 10:11:55;;;;;;;;;3.50;1.75;;;;;14.17;72.94;101485.81;5015047;28;45405;-86
2023/01/01 10:14:26;;;;;;;;;4.00;3.00;;;;;14.14;72.71;101486.75;5014730;28;45275;-88
2023/01/01 10:16:56;;;;;;;;;5.00;2.00;;;;;14.14;73.13;101493.75;5014649;28;45840;-87
2023/01/01 10:19:39;;;;;;;;;2.25;1.75;;;;;14.16;72.96;101493.72;5014680;28;45469;-87
2023/01/01 10:22:26;;;;;;;;;3.25;2.50;;;;;14.17;72.78;101504.16;5014492;28;45494;-86
2023/01/01 10:25:25;;;;;;;;;1.00;1.00;;;;;14.18;72.51;101489.28;5014287;28;45578;-87
2023/01/01 10:27:58;;;;;;;;;10.00;7.00;;;;;14.19;72.53;101498.84;4938210;28;45395;-87
2023/01/01 10:30:24;;;;;;;;;8.25;8.25;;;;;14.22;72.87;101490.88;4948654;28;45327;-87
2023/01/01 10:32:53;;;;;;;;;12.00;8.75;;;;;14.25;72.70;101477.72;4974253;28;45409;-87
2023/01/01 10:35:29;;;;;;;;;13.25;10.00;;;;;14.28;72.68;101472.34;4941555;28;47152;-87
2023/01/01 10:37:55;;;;;;;;;13.50;8.75;;;;;14.28;72.01;101470.63;4958087;28;45414;-87
2023/01/01 10:40:23;;;;;;;;;12.00;5.00;;;;;14.27;72.23;101458.41;4974024;28;45446;-87
2023/01/01 10:42:51;;;;;;;;;3.00;2.00;;;;;14.28;72.36;101457.53;4957713;28;45516;-86
2023/01/01 10:45:44;;;;;;;;;5.25;3.00;;;;;14.28;71.81;101449.66;4973728;28;46419;-87
2023/01/01 10:48:11;;;;;;;;;4.00;2.00;;;;;14.29;71.99;101435.66;4973646;28;45427;-86
2023/01/01 10:50:50;;;;;;;;;6.50;2.25;;;;;14.34;72.20;101425.03;4957680;28;45409;-87
2023/01/01 10:53:26;;;;;;;;;1.50;0.50;;;;;14.36;71.35;101420.59;4973911;28;45265;-87
2023/01/01 10:56:13;;;;;;;;;1.00;1.00;;;;;14.39;71.74;101420.47;4973717;28;45481;-87
2023/01/01 10:58:49;;;;;;;;;3.00;2.00;;;;;14.42;71.45;101411.66;4941199;28;45737;-87
2023/01/01 11:01:17;;;;;;;;;2.50;2.00;;;;;14.45;70.96;101411.53;4973799;28;45550;-87
2023/01/01 11:03:52;;;;;;;;;4.00;1.00;;;;;14.44;70.92;101407.22;5002917;28;45530;-87
2023/01/01 11:06:32;;;;;;;;;3.50;1.00;;;;;14.44;71.36;101408.09;5034757;28;46430;-87
2023/01/01 11:09:02;;;;;;;;;3.00;1.75;;;;;14.45;70.52;101417.66;5033736;28;45587;-87
2023/01/01 11:11:38;;;;;;;;;5.00;3.00;;;;;14.46;70.65;101415.91;5033986;28;45341;-87
2023/01/01 11:14:04;;;;;;;;;6.50;2.50;;;;;14.48;70.39;101420.16;5033894;28;45544;-87
2023/01/01 11:16:30;;;;;;;;;9.25;7.00;;;;;14.49;69.90;101415.78;5017206;28;47551;-87
2023/01/01 11:19:04;;;;;;;;;5.00;5.00;;;;;14.49;69.80;101402.69;5017011;28;45419;-87
2023/01/01 11:21:30;;;;;;;;;3.75;2.00;;;;;14.52;70.06;101408.69;5034231;28;45306;-87
2023/01/01 11:24:14;;;;;;;;;2.00;2.00;;;;;14.51;69.45;101408.75;5038255;28;45500;-87
2023/01/01 11:26:39;;;;;;;;;2.00;2.00;;;;;14.50;69.38;101399.16;5038023;28;47228;-87
2023/01/01 11:29:25;;;;;;;;;4.00;1.00;;;;;14.48;69.87;101387.88;5046762;28;57431;-86
2023/01/01 11:31:51;;;;;;;;;2.50;2.00;;;;;14.49;70.53;101382.59;5058633;28;45435;-87
2023/01/01 11:34:46;;;;;;;;;1.00;1.00;;;;;14.52;70.38;101379.88;5023638;28;45489;-87
2023/01/01 11:37:27;;;;;;;;;4.25;1.25;;;;;14.50;70.43;101383.44;5022470;28;57627;-87
2023/01/01 11:39:55;;;;;;;;;2.25;2.00;;;;;14.49;70.42;101376.50;5040284;28;45326;-87